Time;durP1;ratioP1;P1;durP2;ratioP2;P2;SDS_P1;SDS_P2;PMS_P1;PMS_P2;Temp;Humidity;BMP_temperature;BMP_pressure;BME280_temperature;BME280_humidity;BME280_pressure;Samples;Min_cycle;Max_cycle;Signal;HPM_P1;HPM_P2
2023/09/03 00:02:20;;;;;;;35.53;25.70;;;17.70;99.90;;;;;;4905797;29;20059;-60
2023/09/03 00:04:47;;;;;;;40.67;26.13;;;17.70;99.90;;;;;;4908763;29;20052;-61
2023/09/03 00:07:14;;;;;;;36.75;26.33;;;17.60;99.90;;;;;;4905807;29;20056;-59
2023/09/03 00:09:41;;;;;;;37.60;26.10;;;17.60;99.90;;;;;;4568312;29;10000274;-60
2023/09/03 00:12:08;;;;;;;43.65;25.58;;;17.60;99.90;;;;;;4905238;29;20044;-60
2023/09/03 00:14:34;;;;;;;34.72;25.00;;;17.60;99.90;;;;;;4907669;29;20055;-60
2023/09/03 00:17:01;;;;;;;41.63;25.42;;;17.50;99.90;;;;;;4903683;29;20563;-60
2023/09/03 00:19:28;;;;;;;40.17;26.23;;;17.50;99.90;;;;;;4907766;29;20051;-61
2023/09/03 00:21:55;;;;;;;33.83;25.08;;;17.50;99.90;;;;;;4905498;29;20092;-61
2023/09/03 00:24:22;;;;;;;39.50;25.80;;;17.50;99.90;;;;;;4897245;29;20048;-60
2023/09/03 00:26:49;;;;;;;35.78;23.48;;;17.40;99.90;;;;;;4885340;29;20060;-60
2023/09/03 00:29:16;;;;;;;32.75;24.13;;;17.40;99.90;;;;;;4901788;29;20059;-60
2023/09/03 00:31:43;;;;;;;32.22;24.23;;;17.40;99.90;;;;;;4909946;29;20043;-59
2023/09/03 00:34:09;;;;;;;30.52;22.92;;;17.40;99.90;;;;;;4882809;29;20079;-62
2023/09/03 00:36:36;;;;;;;28.02;23.20;;;17.40;99.90;;;;;;4904564;29;20052;-60
2023/09/03 00:39:03;;;;;;;33.53;24.25;;;17.40;99.90;;;;;;4898581;29;20111;-60
2023/09/03 00:41:30;;;;;;;33.38;23.67;;;17.30;99.90;;;;;;4908490;29;20618;-60
2023/09/03 00:43:57;;;;;;;32.55;23.02;;;17.30;99.90;;;;;;4906598;29;20056;-60
2023/09/03 00:46:27;;;;;;;31.13;22.90;;;17.30;99.90;;;;;;4899175;29;20048;-60
2023/09/03 00:48:54;;;;;;;31.25;22.85;;;17.30;99.90;;;;;;4888189;29;20048;-59
2023/09/03 00:51:20;;;;;;;31.55;23.08;;;17.30;99.90;;;;;;4882287;29;20063;-59
2023/09/03 00:53:48;;;;;;;37.50;24.92;;;17.20;99.90;;;;;;4905329;29;20498;-59
2023/09/03 00:56:15;;;;;;;28.98;21.75;;;17.20;99.90;;;;;;4901835;29;20511;-59
2023/09/03 00:58:42;;;;;;;29.65;22.48;;;17.20;99.90;;;;;;4888891;29;20052;-59
2023/09/03 01:01:09;;;;;;;37.45;22.00;;;17.20;99.90;;;;;;4888680;29;20479;-59
2023/09/03 01:03:35;;;;;;;25.42;21.00;;;17.20;99.90;;;;;;4877338;29;20052;-60
2023/09/03 01:06:04;;;;;;;31.83;21.58;;;17.20;99.90;;;;;;4903440;29;20056;-60
2023/09/03 01:08:30;;;;;;;30.33;23.30;;;17.20;99.90;;;;;;4900381;29;20052;-60
2023/09/03 01:11:11;;;;;;;29.10;23.13;;;17.20;99.90;;;;;;4892444;29;20052;-60
2023/09/03 01:13:48;;;;;;;31.98;20.15;;;17.10;99.90;;;;;;4891410;29;20059;-60
2023/09/03 01:16:19;;;;;;;29.45;22.00;;;17.00;99.90;;;;;;4879289;29;20049;-60
2023/09/03 01:18:46;;;;;;;29.65;22.40;;;17.00;99.90;;;;;;4883212;29;20052;-59
2023/09/03 01:21:22;;;;;;;31.73;22.30;;;16.90;99.90;;;;;;4889359;29;20052;-60
2023/09/03 01:24:10;;;;;;;35.85;23.55;;;16.90;99.90;;;;;;4885588;29;20215;-60
2023/09/03 01:26:52;;;;;;;27.85;22.02;;;16.90;99.90;;;;;;4891207;29;20275;-60
2023/09/03 01:29:19;;;;;;;27.15;20.52;;;16.90;99.90;;;;;;4911838;29;20499;-59
2023/09/03 01:31:45;;;;;;;31.33;22.52;;;16.80;99.90;;;;;;4908952;29;20071;-60
2023/09/03 01:34:12;;;;;;;36.20;24.00;;;16.80;99.90;;;;;;4886974;29;20048;-59
2023/09/03 01:36:39;;;;;;;30.27;20.95;;;16.70;99.90;;;;;;4895037;29;20083;-59
2023/09/03 01:39:06;;;;;;;29.23;21.80;;;16.70;99.90;;;;;;4889694;29;20064;-60
2023/09/03 01:41:35;;;;;;;28.33;22.17;;;16.70;99.90;;;;;;4909352;29;20480;-60
2023/09/03 01:44:08;;;;;;;30.88;23.13;;;16.70;99.90;;;;;;4910966;29;20048;-60
2023/09/03 01:46:51;;;;;;;32.13;24.40;;;16.70;99.90;;;;;;4912255;29;20044;-60
2023/09/03 01:49:50;;;;;;;33.50;24.27;;;16.80;99.90;;;;;;4890342;29;20048;-59
2023/09/03 01:52:26;;;;;;;34.22;23.85;;;16.70;99.90;;;;;;4873441;29;20052;-59
2023/09/03 01:54:53;;;;;;;34.47;25.85;;;16.70;99.90;;;;;;4886568;29;20055;-60
2023/09/03 01:57:30;;;;;;;32.38;24.90;;;16.60;99.90;;;;;;4900441;29;20646;-58
2023/09/03 01:59:58;;;;;;;34.50;25.40;;;16.70;99.90;;;;;;4894678;29;20048;-60
2023/09/03 02:02:25;;;;;;;32.97;23.90;;;16.70;99.90;;;;;;4900055;29;20100;-59
2023/09/03 02:04:52;;;;;;;34.72;24.15;;;16.70;99.90;;;;;;4910338;29;20076;-60
2023/09/03 02:07:19;;;;;;;34.85;24.55;;;16.60;99.90;;;;;;4912064;29;20087;-59
2023/09/03 02:09:46;;;;;;;32.55;25.23;;;16.60;99.90;;;;;;4902140;29;20139;-59
2023/09/03 02:12:12;;;;;;;32.10;23.52;;;16.50;99.90;;;;;;4908406;29;20059;-59
2023/09/03 02:14:39;;;;;;;34.38;23.35;;;16.50;99.90;;;;;;4902781;29;20111;-59
2023/09/03 02:17:06;;;;;;;26.77;21.77;;;16.50;99.90;;;;;;4900089;29;20048;-60
2023/09/03 02:19:33;;;;;;;33.13;23.48;;;16.40;99.90;;;;;;4893731;29;20103;-59
2023/09/03 02:22:00;;;;;;;31.35;24.23;;;16.40;99.90;;;;;;4911077;29;20044;-60
2023/09/03 02:24:26;;;;;;;27.02;22.02;;;16.40;99.90;;;;;;4884421;29;20523;-60
2023/09/03 02:26:53;;;;;;;31.25;22.90;;;16.30;99.90;;;;;;4907326;29;20056;-60
2023/09/03 02:29:20;;;;;;;29.20;22.17;;;16.20;99.90;;;;;;4912362;29;20052;-60
2023/09/03 02:31:48;;;;;;;26.13;19.52;;;16.20;99.90;;;;;;4886039;29;20052;-59
2023/09/03 02:34:15;;;;;;;25.60;18.60;;;16.20;99.90;;;;;;4908634;29;20055;-59
2023/09/03 02:36:42;;;;;;;25.77;19.23;;;16.20;99.90;;;;;;4905027;29;20048;-62
2023/09/03 02:39:08;;;;;;;28.40;19.95;;;16.10;99.90;;;;;;4905571;29;20622;-60
2023/09/03 02:41:35;;;;;;;25.45;18.33;;;16.00;99.90;;;;;;4902513;29;20499;-59
2023/09/03 02:44:02;;;;;;;23.45;17.92;;;16.00;99.90;;;;;;4900281;29;20052;-60
2023/09/03 02:46:29;;;;;;;23.38;17.90;;;16.00;99.90;;;;;;4910532;29;20080;-59
2023/09/03 02:48:56;;;;;;;25.00;18.35;;;16.10;99.90;;;;;;4908612;29;20052;-59
2023/09/03 02:51:23;;;;;;;28.50;19.88;;;16.00;99.90;;;;;;4905284;29;20579;-59
2023/09/03 02:53:51;;;;;;;29.00;20.90;;;16.10;99.90;;;;;;4908222;29;20139;-59
2023/09/03 02:56:18;;;;;;;31.45;19.65;;;16.00;99.90;;;;;;4907687;29;20066;-59
2023/09/03 02:58:50;;;;;;;27.63;21.58;;;16.00;99.90;;;;;;4910019;29;20059;-59
2023/09/03 03:01:18;;;;;;;30.05;22.15;;;16.00;99.90;;;;;;4910708;29;20067;-60
2023/09/03 03:03:45;;;;;;;27.88;20.17;;;16.00;99.90;;;;;;4906127;29;20143;-60
2023/09/03 03:06:13;;;;;;;31.67;21.73;;;16.00;99.90;;;;;;4902056;29;20075;-60
2023/09/03 03:08:40;;;;;;;30.73;21.52;;;16.00;99.90;;;;;;4876987;29;20260;-60
2023/09/03 03:11:16;;;;;;;28.38;20.52;;;16.00;99.90;;;;;;4901252;29;21302;-60
2023/09/03 03:13:44;;;;;;;26.85;21.33;;;15.90;99.90;;;;;;4907891;29;20103;-59
2023/09/03 03:16:13;;;;;;;24.85;19.58;;;15.90;99.90;;;;;;4906961;29;20111;-60
2023/09/03 03:18:42;;;;;;;24.75;17.63;;;15.80;99.90;;;;;;4898792;29;20072;-60
2023/09/03 03:21:10;;;;;;;21.85;15.60;;;15.70;99.90;;;;;;4905425;29;20060;-59
2023/09/03 03:23:38;;;;;;;20.13;16.88;;;15.70;99.90;;;;;;4909476;29;20044;-59
2023/09/03 03:26:05;;;;;;;19.35;13.68;;;15.70;99.90;;;;;;4901476;29;20065;-60
2023/09/03 03:28:33;;;;;;;25.33;16.42;;;15.60;99.90;;;;;;4904802;29;20396;-60
2023/09/03 03:31:13;;;;;;;29.58;18.80;;;15.60;99.90;;;;;;4911318;29;20487;-60
2023/09/03 03:33:40;;;;;;;23.27;19.10;;;15.60;99.90;;;;;;4900389;29;20056;-59
2023/09/03 03:36:09;;;;;;;28.15;19.00;;;15.60;99.90;;;;;;4904115;29;20063;-60
2023/09/03 03:38:36;;;;;;;23.38;18.05;;;15.70;99.90;;;;;;4902554;29;20536;-59
2023/09/03 03:41:08;;;;;;;25.85;18.73;;;15.60;99.90;;;;;;4905731;29;20508;-60
2023/09/03 03:43:36;;;;;;;21.13;16.80;;;15.60;99.90;;;;;;4902021;29;20495;-59
2023/09/03 03:46:03;;;;;;;24.50;17.55;;;15.60;99.90;;;;;;4897526;29;20052;-60
2023/09/03 03:48:30;;;;;;;23.55;17.90;;;15.50;99.90;;;;;;4892744;29;20060;-61
2023/09/03 03:50:57;;;;;;;29.00;19.98;;;15.50;99.90;;;;;;4905240;29;20055;-60
2023/09/03 03:53:24;;;;;;;23.10;18.17;;;15.50;99.90;;;;;;4895908;29;20186;-59
2023/09/03 03:56:01;;;;;;;27.90;18.15;;;15.50;99.90;;;;;;4897943;29;20070;-59
2023/09/03 03:58:28;;;;;;;21.02;18.13;;;15.50;99.90;;;;;;4899917;29;20083;-59
2023/09/03 04:00:55;;;;;;;25.15;18.23;;;15.50;99.90;;;;;;4906379;29;20048;-59
2023/09/03 04:03:23;;;;;;;24.40;18.70;;;15.40;99.90;;;;;;4909801;29;20579;-60
2023/09/03 04:06:00;;;;;;;21.17;16.75;;;15.40;99.90;;;;;;4908770;29;20052;-59
2023/09/03 04:08:39;;;;;;;21.60;18.15;;;15.40;99.90;;;;;;4892536;29;20466;-59
2023/09/03 04:11:09;;;;;;;22.70;16.05;;;15.50;99.90;;;;;;4906200;29;20060;-59
2023/09/03 04:13:37;;;;;;;22.52;16.25;;;15.40;99.90;;;;;;4901304;29;20484;-59
2023/09/03 04:16:16;;;;;;;23.13;15.70;;;15.20;99.90;;;;;;4910337;29;20056;-60
2023/09/03 04:18:44;;;;;;;24.38;15.23;;;15.10;99.90;;;;;;4909265;29;20416;-60
2023/09/03 04:21:11;;;;;;;24.25;17.02;;;15.10;99.90;;;;;;4892222;29;20500;-59
2023/09/03 04:23:38;;;;;;;22.00;17.35;;;15.10;99.90;;;;;;4906314;29;20056;-59
2023/09/03 04:26:05;;;;;;;24.40;17.30;;;15.10;99.90;;;;;;4904844;29;20060;-59
2023/09/03 04:28:32;;;;;;;25.63;16.70;;;15.20;99.90;;;;;;4910015;29;20060;-60
2023/09/03 04:31:00;;;;;;;29.20;17.77;;;15.20;99.90;;;;;;4908730;29;20404;-60
2023/09/03 04:33:26;;;;;;;27.08;18.77;;;15.10;99.90;;;;;;4900099;29;20044;-60
2023/09/03 04:35:58;;;;;;;28.30;21.48;;;15.10;99.90;;;;;;4904278;29;20078;-60
2023/09/03 04:38:25;;;;;;;36.70;22.40;;;15.10;99.90;;;;;;4907331;29;20055;-60
2023/09/03 04:40:52;;;;;;;30.52;22.08;;;15.10;99.90;;;;;;4901992;29;20108;-60
2023/09/03 04:43:19;;;;;;;25.08;20.83;;;15.10;99.90;;;;;;4907661;29;20048;-60
2023/09/03 04:45:51;;;;;;;30.30;22.10;;;15.10;99.90;;;;;;4902394;29;20559;-60
2023/09/03 04:48:19;;;;;;;24.77;19.30;;;15.10;99.90;;;;;;4909344;29;20512;-60
2023/09/03 04:50:46;;;;;;;32.38;21.80;;;15.00;99.90;;;;;;4884448;29;20087;-59
2023/09/03 04:53:13;;;;;;;33.95;23.55;;;15.00;99.90;;;;;;4906426;29;20078;-60
2023/09/03 04:55:40;;;;;;;34.67;25.70;;;15.10;99.90;;;;;;4907402;29;20064;-59
2023/09/03 04:58:07;;;;;;;35.28;25.63;;;15.10;99.90;;;;;;4906277;29;20091;-60
2023/09/03 05:00:34;;;;;;;33.72;24.13;;;15.10;99.90;;;;;;4899059;29;20118;-60
2023/09/03 05:03:04;;;;;;;34.83;26.73;;;15.20;99.90;;;;;;4897176;29;20056;-60
2023/09/03 05:05:39;;;;;;;37.63;26.67;;;15.10;99.90;;;;;;4904205;29;20136;-60
2023/09/03 05:08:06;;;;;;;;;;;15.20;99.90;;;;;;4894545;29;20068;-60
2023/09/03 05:10:33;;;;;;;43.72;25.27;;;15.20;99.90;;;;;;4903343;29;19927;-59
2023/09/03 05:13:00;;;;;;;53.53;31.02;;;15.20;99.90;;;;;;4908452;29;20056;-60
2023/09/03 05:15:26;;;;;;;64.57;30.25;;;15.10;99.90;;;;;;4899449;29;20107;-59
2023/09/03 05:17:53;;;;;;;49.78;32.08;;;15.00;99.90;;;;;;4904476;29;20047;-59
2023/09/03 05:20:20;;;;;;;45.65;30.20;;;15.10;99.90;;;;;;4899775;29;20053;-60
2023/09/03 05:22:47;;;;;;;60.42;30.83;;;15.10;99.90;;;;;;4885494;29;20496;-60
2023/09/03 05:25:14;;;;;;;52.85;29.52;;;15.10;99.90;;;;;;4902916;29;20147;-60
2023/09/03 05:27:41;;;;;;;62.28;31.33;;;15.20;99.90;;;;;;4891399;29;20063;-60
2023/09/03 05:30:08;;;;;;;75.43;32.28;;;15.20;99.90;;;;;;4901189;29;20520;-61
2023/09/03 05:32:34;;;;;;;65.13;31.55;;;15.20;99.90;;;;;;4907958;29;20438;-61
2023/09/03 05:35:01;;;;;;;62.60;29.83;;;15.20;99.90;;;;;;4903458;29;20048;-61
2023/09/03 05:37:28;;;;;;;67.53;31.83;;;15.20;99.90;;;;;;4899834;29;20467;-61
2023/09/03 05:39:55;;;;;;;74.13;30.73;;;15.30;99.90;;;;;;4891043;29;20052;-60
2023/09/03 05:42:22;;;;;;;54.13;29.33;;;15.30;99.90;;;;;;4903529;29;20120;-60
2023/09/03 05:44:48;;;;;;;74.80;32.40;;;15.20;99.90;;;;;;4896044;29;20112;-61
2023/09/03 05:47:18;;;;;;;69.38;32.97;;;15.30;99.90;;;;;;4899797;29;20502;-61
2023/09/03 05:49:46;;;;;;;108.43;29.77;;;15.30;99.90;;;;;;4891850;29;20095;-61
2023/09/03 05:52:13;;;;;;;83.22;28.33;;;15.30;99.90;;;;;;4898903;29;20051;-60
2023/09/03 05:54:39;;;;;;;69.93;29.58;;;15.20;99.90;;;;;;4904394;29;20056;-60
2023/09/03 05:57:06;;;;;;;88.03;28.05;;;15.20;99.90;;;;;;4904954;29;20085;-60
2023/09/03 05:59:33;;;;;;;83.20;25.20;;;15.20;99.90;;;;;;4882836;29;20354;-60
2023/09/03 06:02:00;;;;;;;83.50;27.02;;;15.30;99.90;;;;;;4908001;29;20404;-61
2023/09/03 06:04:26;;;;;;;54.55;25.88;;;15.30;99.90;;;;;;4904724;29;20495;-60
2023/09/03 06:06:53;;;;;;;67.25;25.80;;;15.40;99.90;;;;;;4908568;29;20475;-60
2023/09/03 06:09:20;;;;;;;86.53;26.88;;;15.40;99.90;;;;;;4904495;29;20044;-61
2023/09/03 06:11:48;;;;;;;76.10;29.05;;;15.40;99.90;;;;;;4909264;29;20456;-61
2023/09/03 06:14:15;;;;;;;87.28;25.80;;;15.50;99.90;;;;;;4904182;29;20496;-61
2023/09/03 06:16:42;;;;;;;56.95;26.35;;;15.40;99.90;;;;;;4904670;29;20055;-60
2023/09/03 06:19:09;;;;;;;66.45;26.42;;;15.50;99.90;;;;;;4910997;29;20136;-62
2023/09/03 06:21:36;;;;;;;75.07;28.40;;;15.40;99.90;;;;;;4893393;29;20055;-60
2023/09/03 06:24:03;;;;;;;79.40;23.35;;;15.40;99.90;;;;;;4910660;29;20455;-60
2023/09/03 06:26:30;;;;;;;52.10;28.58;;;15.40;99.90;;;;;;4907848;29;20171;-60
2023/09/03 06:28:57;;;;;;;67.03;24.55;;;15.40;99.90;;;;;;4902362;29;20096;-60
2023/09/03 06:31:24;;;;;;;62.22;23.35;;;15.50;99.90;;;;;;4908641;29;20075;-60
2023/09/03 06:33:52;;;;;;;36.33;23.42;;;15.50;99.90;;;;;;4903510;29;20056;-60
2023/09/03 06:36:19;;;;;;;38.08;24.48;;;15.60;99.90;;;;;;4909026;29;20048;-59
2023/09/03 06:38:46;;;;;;;37.25;23.92;;;15.60;99.90;;;;;;4910356;29;20413;-60
2023/09/03 06:41:13;;;;;;;54.53;24.00;;;15.70;99.90;;;;;;4911022;29;20048;-61
2023/09/03 06:43:40;;;;;;;36.58;23.63;;;15.70;99.90;;;;;;4902547;29;20103;-61
2023/09/03 06:46:07;;;;;;;59.83;23.33;;;15.70;99.90;;;;;;4906701;29;20048;-61
2023/09/03 06:48:34;;;;;;;39.05;23.85;;;15.70;99.90;;;;;;4908294;29;20056;-60
2023/09/03 06:51:01;;;;;;;34.42;24.77;;;15.70;99.90;;;;;;4910003;29;20464;-60
2023/09/03 06:53:27;;;;;;;45.92;23.85;;;15.80;99.90;;;;;;4908144;29;20496;-59
2023/09/03 06:55:55;;;;;;;37.90;24.65;;;15.80;99.90;;;;;;4909128;29;20056;-60
2023/09/03 06:58:22;;;;;;;40.38;23.75;;;15.90;99.90;;;;;;4882939;29;20052;-60
2023/09/03 07:00:50;;;;;;;43.60;25.38;;;16.00;99.90;;;;;;4905013;29;20051;-59
2023/09/03 07:03:20;;;;;;;32.85;23.80;;;16.00;99.90;;;;;;4909195;29;20051;-60
2023/09/03 07:05:47;;;;;;;36.45;24.77;;;16.00;99.90;;;;;;4901541;29;20076;-59
2023/09/03 07:08:14;;;;;;;41.90;25.20;;;16.00;99.90;;;;;;4902037;29;20056;-59
2023/09/03 07:10:41;;;;;;;32.28;23.42;;;16.00;99.90;;;;;;4903461;29;20051;-60
2023/09/03 07:13:08;;;;;;;33.78;24.30;;;16.10;99.90;;;;;;4895626;29;20048;-60
2023/09/03 07:15:36;;;;;;;34.28;24.50;;;16.10;99.90;;;;;;4890974;29;20056;-60
2023/09/03 07:18:04;;;;;;;32.50;24.25;;;16.20;99.90;;;;;;4908060;29;20146;-60
2023/09/03 07:20:31;;;;;;;33.30;24.92;;;16.20;99.90;;;;;;4908814;29;20052;-60
2023/09/03 07:22:57;;;;;;;34.08;24.08;;;16.30;99.90;;;;;;4906111;29;20112;-60
2023/09/03 07:25:25;;;;;;;30.23;23.63;;;16.30;99.90;;;;;;4910958;29;20060;-60
2023/09/03 07:27:51;;;;;;;34.92;23.17;;;16.40;99.90;;;;;;4908903;29;20056;-60
2023/09/03 07:30:18;;;;;;;31.35;23.40;;;16.40;99.90;;;;;;4901482;29;20482;-60
2023/09/03 07:32:45;;;;;;;26.33;21.30;;;16.50;99.90;;;;;;4888910;29;20067;-60
2023/09/03 07:35:12;;;;;;;27.13;21.35;;;16.60;99.90;;;;;;4906939;29;20057;-60
2023/09/03 07:37:42;;;;;;;24.65;19.92;;;16.70;99.90;;;;;;4906561;29;20135;-62
2023/09/03 07:40:10;;;;;;;27.92;21.58;;;16.80;99.90;;;;;;4905515;29;20059;-60
2023/09/03 07:42:43;;;;;;;28.30;20.30;;;16.90;99.90;;;;;;4907284;29;20076;-61
2023/09/03 07:45:10;;;;;;;32.75;22.27;;;17.00;99.90;;;;;;4905184;29;20071;-61
2023/09/03 07:47:37;;;;;;;30.20;21.45;;;17.10;99.90;;;;;;4902855;29;20085;-60
2023/09/03 07:50:05;;;;;;;30.60;21.75;;;17.20;99.90;;;;;;4904909;29;20586;-60
2023/09/03 07:52:31;;;;;;;31.77;22.92;;;17.30;99.90;;;;;;4900279;29;20048;-59
2023/09/03 07:54:58;;;;;;;26.83;21.08;;;17.30;99.90;;;;;;4905752;29;20511;-59
2023/09/03 07:57:27;;;;;;;26.65;19.15;;;17.30;99.90;;;;;;4905976;29;20291;-59
2023/09/03 07:59:53;;;;;;;26.52;21.00;;;17.40;99.90;;;;;;4880613;29;20116;-59
2023/09/03 08:02:20;;;;;;;28.85;22.00;;;17.60;99.90;;;;;;4901859;29;20052;-60
2023/09/03 08:04:47;;;;;;;26.10;19.08;;;17.60;99.90;;;;;;4910233;29;20048;-60
2023/09/03 08:07:14;;;;;;;26.63;18.85;;;17.70;99.90;;;;;;4909677;29;20492;-60
2023/09/03 08:09:41;;;;;;;24.05;18.55;;;17.80;99.90;;;;;;4891102;29;20424;-60
2023/09/03 08:12:08;;;;;;;25.92;19.08;;;17.90;99.90;;;;;;4908247;29;20128;-60
2023/09/03 08:14:36;;;;;;;25.35;18.85;;;18.00;99.90;;;;;;4907411;29;20052;-59
2023/09/03 08:17:03;;;;;;;22.23;17.40;;;18.00;99.90;;;;;;4900794;29;20054;-60
2023/09/03 08:19:30;;;;;;;27.17;18.60;;;18.10;99.90;;;;;;4898417;29;20059;-63
2023/09/03 08:21:57;;;;;;;21.77;16.20;;;18.20;99.90;;;;;;4911490;29;20048;-60
2023/09/03 08:24:24;;;;;;;27.52;17.17;;;18.30;99.90;;;;;;4888129;29;20044;-59
2023/09/03 08:26:53;;;;;;;18.55;16.00;;;18.40;99.90;;;;;;4874466;29;20098;-60
2023/09/03 08:29:20;;;;;;;21.08;15.15;;;18.40;99.90;;;;;;4905660;29;20097;-60
2023/09/03 08:31:48;;;;;;;30.73;16.15;;;18.50;99.90;;;;;;4910684;29;20064;-60
2023/09/03 08:34:15;;;;;;;26.42;15.40;;;18.60;99.90;;;;;;4904556;29;20562;-60
2023/09/03 08:36:42;;;;;;;21.63;13.60;;;18.70;99.90;;;;;;4910209;29;20066;-60
2023/09/03 08:39:09;;;;;;;24.02;14.45;;;18.80;99.90;;;;;;4903001;29;20213;-60
2023/09/03 08:41:36;;;;;;;17.88;13.82;;;19.00;99.90;;;;;;4887854;29;20478;-60
2023/09/03 08:44:04;;;;;;;15.90;12.65;;;19.00;99.90;;;;;;4884082;29;20110;-60
2023/09/03 08:46:32;;;;;;;19.05;14.38;;;19.10;99.90;;;;;;4900487;29;20083;-60
2023/09/03 08:48:59;;;;;;;22.08;13.07;;;19.30;99.90;;;;;;4891927;29;20116;-59
2023/09/03 08:51:26;;;;;;;20.50;11.18;;;19.50;99.90;;;;;;4873042;29;20056;-59
2023/09/03 08:53:54;;;;;;;17.33;11.15;;;19.60;99.90;;;;;;4883544;29;20492;-59
2023/09/03 08:56:22;;;;;;;17.83;13.88;;;19.80;99.90;;;;;;4892518;29;20048;-62
2023/09/03 08:58:49;;;;;;;16.98;11.63;;;19.90;99.90;;;;;;4901743;29;20460;-60
2023/09/03 09:01:16;;;;;;;23.35;13.68;;;20.00;99.90;;;;;;4906129;29;20104;-59
2023/09/03 09:03:44;;;;;;;21.63;13.55;;;20.00;99.90;;;;;;4897540;29;20040;-63
2023/09/03 09:06:14;;;;;;;19.38;13.95;;;20.00;99.90;;;;;;4881162;29;20080;-58
2023/09/03 09:08:41;;;;;;;24.63;13.82;;;20.10;99.90;;;;;;4887966;29;20489;-59
2023/09/03 09:11:12;;;;;;;20.90;12.05;;;20.10;99.90;;;;;;4879957;29;20524;-59
2023/09/03 09:13:38;;;;;;;18.42;13.30;;;20.10;99.90;;;;;;4908882;29;20076;-59
2023/09/03 09:16:05;;;;;;;19.95;12.65;;;20.10;99.90;;;;;;4893753;29;20111;-60
2023/09/03 09:18:32;;;;;;;16.48;11.38;;;20.10;99.90;;;;;;4898654;29;20149;-59
2023/09/03 09:21:00;;;;;;;22.00;11.55;;;20.10;99.90;;;;;;4897166;29;20052;-60
2023/09/03 09:23:26;;;;;;;22.00;13.15;;;20.30;99.90;;;;;;4886589;29;20056;-59
2023/09/03 09:25:58;;;;;;;18.48;11.95;;;20.30;99.90;;;;;;4904479;29;20064;-59
2023/09/03 09:28:26;;;;;;;13.90;10.40;;;20.30;99.90;;;;;;4882623;29;20060;-60
2023/09/03 09:30:54;;;;;;;13.40;8.32;;;20.50;99.90;;;;;;4904587;29;20048;-59
2023/09/03 09:33:21;;;;;;;19.77;9.65;;;20.70;99.90;;;;;;4894129;29;20103;-60
2023/09/03 09:35:48;;;;;;;19.50;9.00;;;21.00;99.90;;;;;;4903745;29;20059;-59
2023/09/03 09:38:16;;;;;;;18.20;10.35;;;21.40;99.90;;;;;;4908579;29;20044;-59
2023/09/03 09:40:43;;;;;;;12.48;10.10;;;21.60;99.90;;;;;;4903264;29;20057;-60
2023/09/03 09:43:10;;;;;;;17.05;9.60;;;21.80;99.90;;;;;;4899660;29;20072;-60
2023/09/03 09:45:51;;;;;;;16.25;10.55;;;22.10;99.90;;;;;;4907765;29;20063;-61
2023/09/03 09:48:18;;;;;;;17.10;9.35;;;22.50;99.90;;;;;;4898806;29;20491;-61
2023/09/03 09:50:47;;;;;;;21.75;14.77;;;22.90;99.90;;;;;;4890213;29;20048;-61
2023/09/03 09:53:22;;;;;;;14.15;10.77;;;23.00;99.90;;;;;;4911762;29;20044;-61
2023/09/03 09:56:12;;;;;;;16.30;10.68;;;23.10;99.90;;;;;;4879670;29;20063;-61
2023/09/03 09:58:40;;;;;;;15.63;11.73;;;23.00;99.90;;;;;;4901410;29;20091;-60
2023/09/03 10:01:08;;;;;;;15.90;12.23;;;22.90;99.90;;;;;;4911415;29;20049;-60
2023/09/03 10:03:47;;;;;;;14.77;11.18;;;23.10;99.90;;;;;;4909415;29;20052;-61
2023/09/03 10:06:16;;;;;;;15.13;11.65;;;23.30;99.90;;;;;;4903497;29;20135;-61
2023/09/03 10:08:44;;;;;;;17.08;13.57;;;23.40;99.90;;;;;;4891515;29;20043;-61
2023/09/03 10:11:15;;;;;;;15.63;12.57;;;23.10;99.90;;;;;;4897857;29;20055;-61
2023/09/03 10:13:43;;;;;;;16.55;12.13;;;22.90;99.90;;;;;;4909203;29;20100;-60
2023/09/03 10:16:10;;;;;;;14.32;11.27;;;22.80;99.90;;;;;;4904940;29;20115;-60
2023/09/03 10:18:44;;;;;;;18.25;12.70;;;22.70;99.90;;;;;;4908005;29;20063;-61
2023/09/03 10:21:10;;;;;;;;;;;22.70;99.90;;;;;;4902897;29;20075;-60
2023/09/03 10:23:47;;;;;;;12.98;10.38;;;22.70;99.90;;;;;;4894325;29;20010;-60
2023/09/03 10:26:15;;;;;;;14.10;11.27;;;22.70;99.90;;;;;;4885236;29;20071;-61
2023/09/03 10:28:43;;;;;;;16.38;11.77;;;22.70;99.90;;;;;;4907999;29;20492;-60
2023/09/03 10:31:10;;;;;;;17.55;13.02;;;22.70;99.90;;;;;;4891822;29;20056;-61
2023/09/03 10:33:40;;;;;;;18.33;12.30;;;22.70;99.90;;;;;;4907970;29;20059;-58
2023/09/03 10:36:14;;;;;;;17.95;11.55;;;22.60;99.90;;;;;;4902752;29;20060;-59
2023/09/03 10:38:41;;;;;;;14.25;10.63;;;22.60;99.90;;;;;;4889840;29;20448;-61
2023/09/03 10:41:24;;;;;;;17.25;11.50;;;22.60;99.90;;;;;;4888760;29;20056;-59
2023/09/03 10:43:52;;;;;;;16.80;11.73;;;22.50;99.90;;;;;;4906715;29;20119;-59
2023/09/03 10:46:20;;;;;;;15.10;13.20;;;22.60;99.90;;;;;;4909018;29;20049;-59
2023/09/03 10:48:56;;;;;;;20.33;13.30;;;22.50;99.90;;;;;;4906023;29;20052;-59
2023/09/03 10:51:40;;;;;;;18.05;13.27;;;22.50;99.90;;;;;;4908547;29;20048;-60
2023/09/03 10:54:19;;;;;;;17.02;12.63;;;22.50;99.90;;;;;;4907298;29;20048;-60
2023/09/03 10:57:04;;;;;;;21.58;13.07;;;22.50;99.90;;;;;;4909227;29;20464;-60
2023/09/03 11:00:01;;;;;;;21.50;13.25;;;22.60;99.90;;;;;;4899881;29;20052;-60
2023/09/03 11:02:28;;;;;;;22.63;12.93;;;22.70;99.90;;;;;;4891269;29;20052;-59
2023/09/03 11:05:16;;;;;;;20.77;12.68;;;22.80;99.90;;;;;;4906486;29;20055;-61
2023/09/03 11:07:43;;;;;;;19.10;11.82;;;22.90;99.90;;;;;;4885539;29;20055;-59
2023/09/03 11:10:27;;;;;;;16.08;11.68;;;23.00;99.90;;;;;;4895264;29;20044;-61
2023/09/03 11:12:56;;;;;;;17.17;13.02;;;23.10;99.90;;;;;;4900806;29;20072;-60
2023/09/03 11:15:22;;;;;;;19.92;13.85;;;23.10;99.90;;;;;;4906535;29;20054;-60
2023/09/03 11:17:50;;;;;;;20.05;15.32;;;23.10;99.90;;;;;;4904837;29;20076;-60
2023/09/03 11:20:34;;;;;;;21.20;13.30;;;23.10;99.90;;;;;;4907255;29;20052;-60
2023/09/03 11:23:16;;;;;;;18.45;14.50;;;23.30;99.90;;;;;;4900706;29;20078;-62
2023/09/03 11:25:43;;;;;;;17.95;13.18;;;23.40;99.90;;;;;;4906089;29;20107;-61
2023/09/03 11:28:14;;;;;;;19.52;11.77;;;23.40;99.90;;;;;;4905032;29;20110;-60
2023/09/03 11:30:45;;;;;;;18.25;12.88;;;23.50;99.90;;;;;;4907092;29;20072;-60
2023/09/03 11:33:25;;;;;;;15.45;12.10;;;23.50;99.90;;;;;;4909604;29;20099;-60
2023/09/03 11:35:53;;;;;;;16.00;11.82;;;23.60;99.90;;;;;;4908805;29;20056;-60
2023/09/03 11:38:22;;;;;;;19.95;12.93;;;23.70;99.90;;;;;;4895403;29;20496;-60
2023/09/03 11:40:55;;;;;;;13.30;10.05;;;23.70;99.90;;;;;;4899919;29;20044;-60
2023/09/03 11:43:22;;;;;;;16.80;12.63;;;23.80;99.90;;;;;;4876569;29;20183;-59
2023/09/03 11:45:49;;;;;;;18.92;13.13;;;23.80;99.90;;;;;;4905151;29;20048;-60
2023/09/03 11:48:26;;;;;;;21.58;14.45;;;23.70;99.90;;;;;;4892996;29;20107;-60
2023/09/03 11:50:53;;;;;;;16.00;13.52;;;23.60;99.90;;;;;;4901437;29;20056;-60
2023/09/03 11:53:20;;;;;;;17.20;13.77;;;23.40;99.90;;;;;;4899666;29;20052;-61
2023/09/03 11:55:55;;;;;;;19.48;12.68;;;23.40;99.90;;;;;;4892210;29;20056;-60
2023/09/03 11:58:24;;;;;;;14.88;9.85;;;23.50;99.90;;;;;;4883350;29;20056;-60
2023/09/03 12:00:50;;;;;;;16.02;11.07;;;23.60;99.90;;;;;;4894690;29;20448;-60
2023/09/03 12:03:17;;;;;;;20.92;11.85;;;23.80;99.90;;;;;;4894898;29;20163;-60
2023/09/03 12:05:45;;;;;;;14.85;10.73;;;23.80;99.90;;;;;;4888841;29;20076;-64
2023/09/03 12:08:11;;;;;;;18.58;11.57;;;23.70;99.90;;;;;;4889260;29;20499;-61
2023/09/03 12:10:38;;;;;;;17.67;12.48;;;23.70;99.90;;;;;;4870630;29;20112;-59
2023/09/03 12:13:09;;;;;;;13.48;10.20;;;23.70;99.90;;;;;;4875727;29;20053;-60
2023/09/03 12:15:36;;;;;;;16.00;11.55;;;23.80;99.90;;;;;;4900167;29;20059;-61
2023/09/03 12:18:10;;;;;;;16.20;11.80;;;23.70;99.90;;;;;;4907874;29;20055;-61
2023/09/03 12:20:38;;;;;;;17.25;10.73;;;23.70;99.90;;;;;;4903004;29;20062;-60
2023/09/03 12:23:13;;;;;;;14.40;9.65;;;23.60;99.90;;;;;;4897658;29;20056;-60
2023/09/03 12:25:41;;;;;;;12.93;10.45;;;23.50;99.90;;;;;;4909587;29;20499;-59
2023/09/03 12:28:08;;;;;;;13.65;10.70;;;23.60;99.90;;;;;;4901204;29;20052;-60
2023/09/03 12:30:57;;;;;;;14.75;11.05;;;23.70;99.90;;;;;;4907346;29;20051;-60
2023/09/03 12:33:34;;;;;;;14.98;9.48;;;23.80;99.90;;;;;;4892089;29;20044;-60
2023/09/03 12:36:10;;;;;;;15.10;10.27;;;23.80;99.90;;;;;;4903726;29;20064;-60
2023/09/03 12:38:53;;;;;;;14.82;9.50;;;23.80;99.90;;;;;;4904880;29;20049;-61